Martinsville, IN (46151)

7:54 PM EDT on August 30, 2016 (GMT -0400)
Lake Edgewood | | Change Station

Elev 663 ft 39.45 °N, 86.45 °W | Updated 44 seconds ago

Partly Cloudy
Partly Cloudy
79.5 °F
Feels Like 80 °F
N
2.2
Wind Variable Wind from East
Gusts 2.2 mph

Today
High -- | Low -- °F
--% Chance of Precip.
Yesterday
High -- | Low -- °F
Precip. -- in
Pressure 30.02 in
Visibility 10.0 miles
Clouds Few 4700 ft
Heat Index 80 °F
Dew Point 59 °F
Humidity 50%
Rainfall 0.00 in
Snow Depth Not available.
7:12 AM 8:18 PM
Waning Crescent, 2% visible
METAR KBMG 302253Z 22003KT 10SM FEW047 29/23 A3004 RMK AO2 SLP164 T02940228
Pressure 30.02 in
Visibility 10.0 miles
Clouds Few 4700 ft
Heat Index 80 °F
Dew Point 59 °F
Humidity 50%
Rainfall 0.00 in
Snow Depth Not available.
7:12 AM 8:18 PM
Waning Crescent, 2% visible
METAR KBMG 302253Z 22003KT 10SM FEW047 29/23 A3004 RMK AO2 SLP164 T02940228

10-Day Weather Forecast

Almanac

Astronomy

Aug. 30, 2016 Rise Set
Actual Time
Civil Twilight
Nautical Twilight
Astronomical Twilight
Moon
Length of Visible Light
Length of Day
Tomorrow will be .
, % of the Moon is Illuminated

Today's Extremes

State Highs State Lows

Community

WunderPhotos

Upload Photos

1,935,947 photos uploaded!

WunderBlog® & News

Nearby

Air Quality

  Air Quality AQ Index Pollutant
Not available.

Snow Depth

Station Depth Elevation

Earthquake Activity

City Distance Mag. Time & Date
Minimum magnitude displayed is 2.5.

Coastal Water Temperatures

Place Temperature

Stations

Nearby Weather Stations

Station Location Temp. Windchill Dew Point Humidity Wind Precip. Elev Updated Type
                   

Watches & Warnings

There are currently no watches in effect.